No.10 Hasshomaru — JD2992 — position and weather

sailwx.info

Track history (hours):
 
Tides and Currents Weather Stations Pressure Air Temp Water Temp Dewpoint Dewpoint Depression Visibility Wind Speed Wind Dir Waves Ship Positions

No.10 Hasshomaru

Last reported at 2014-Jul-28 11:32 UTC. Time now 2014-Jul-30 19:15 UTC.
Position N 34°02' E 134°59'.

Length 105 m; draft 6.4 m.

Type: Tanker. MMSI: 431001112.

Date/timePositionNaut miles runAvg speedWind from/ knotsBaromVisibWave heightAir tempDewpointWater temp
2014-Jul-28 11:32N 34°02' E 134°59'1313.1
2014-Jul-28 10:33N 34°14' E 134°59'1212.1
2014-Jul-28 09:33N 34°26' E 135°01'1110.7
2014-Jul-28 08:33N 34°37' E 134°60'11 0.5
2014-Jul-27 09:12N 34°33' E 134°47'1015.8
2014-Jul-27 08:33N 34°37' E 134°58'1313.2
2014-Jul-27 07:33N 34°34' E 135°14'9 1.1
2014-Jul-26 23:03N 34°32' E 135°25'2 4.9
2014-Jul-26 22:34N 34°33' E 135°22'3 2.9
2014-Jul-26 21:27N 34°32' E 135°18'0 0.0
2014-Jul-26 20:33N 34°32' E 135°18'0 0.0
2014-Jul-26 19:33N 34°32' E 135°18'0 0.0
2014-Jul-26 17:21N 34°32' E 135°18'0 0.0
2014-Jul-26 15:33N 34°32' E 135°18'0 0.0
2014-Jul-26 14:21N 34°32' E 135°18'0 0.0
2014-Jul-26 13:33N 34°32' E 135°18'9 9.5
2014-Jul-26 12:33N 34°35' E 135°07'11 9.9
2014-Jul-26 11:26N 34°35' E 134°54'4 0.1
2014-Jul-24 09:28N 34°34' E 134°49'1415.8
2014-Jul-24 08:34N 34°35' E 135°06'1414.2
2014-Jul-24 07:33N 34°33' E 135°23'1 0.2
2014-Jul-23 23:33N 34°32' E 135°25'6 5.0
2014-Jul-23 22:25N 34°32' E 135°18'0 0.0
2014-Jul-23 21:19N 34°32' E 135°18'0 0.0
2014-Jul-23 20:25N 34°32' E 135°18'0 0.0
2014-Jul-23 19:31N 34°32' E 135°18'0 0.0
2014-Jul-23 18:31N 34°32' E 135°18'0 0.0
2014-Jul-23 17:19N 34°32' E 135°18'0 0.0
2014-Jul-23 16:31N 34°32' E 135°18'0 0.0
2014-Jul-23 15:31N 34°32' E 135°18'0 0.0
2014-Jul-23 14:31N 34°32' E 135°18'1111.2
2014-Jul-23 13:33N 34°34' E 135°05'1512.0
2014-Jul-23 12:19N 34°33' E 134°47'101 5.6
2014-Jul-22 18:10N 34°05' E 132°50'914.5
2014-Jul-22 17:33N 33°58' E 132°43'2114.3
2014-Jul-22 16:06N 33°45' E 132°23'354 7.9
2014-Jul-20 19:25N 37°14' E 138°14'  
Track history (hours):
 
Tides and Currents Weather Stations Pressure Air Temp Water Temp Dewpoint Dewpoint Depression Visibility Wind Speed Wind Dir Waves Ship Positions

No.10 Hasshomaru

Last reported at 2014-Jul-28 11:32 UTC. Time now 2014-Jul-30 19:15 UTC.
Position N 34°02' E 134°59'.

Length 105 m; draft 6.4 m.

Type: Tanker. MMSI: 431001112.

Date/timePositionNaut miles runAvg speedWind from/ knotsBaromVisibWave heightAir tempDewpointWater temp
2014-Jul-28 11:32N 34°02' E 134°59'1313.1
2014-Jul-28 10:33N 34°14' E 134°59'1212.1
2014-Jul-28 09:33N 34°26' E 135°01'1110.7
2014-Jul-28 08:33N 34°37' E 134°60'11 0.5
2014-Jul-27 09:12N 34°33' E 134°47'1015.8
2014-Jul-27 08:33N 34°37' E 134°58'1313.2
2014-Jul-27 07:33N 34°34' E 135°14'9 1.1
2014-Jul-26 23:03N 34°32' E 135°25'2 4.9
2014-Jul-26 22:34N 34°33' E 135°22'3 2.9
2014-Jul-26 21:27N 34°32' E 135°18'0 0.0
2014-Jul-26 20:33N 34°32' E 135°18'0 0.0
2014-Jul-26 19:33N 34°32' E 135°18'0 0.0
2014-Jul-26 17:21N 34°32' E 135°18'0 0.0
2014-Jul-26 15:33N 34°32' E 135°18'0 0.0
2014-Jul-26 14:21N 34°32' E 135°18'0 0.0
2014-Jul-26 13:33N 34°32' E 135°18'9 9.5
2014-Jul-26 12:33N 34°35' E 135°07'11 9.9
2014-Jul-26 11:26N 34°35' E 134°54'4 0.1
2014-Jul-24 09:28N 34°34' E 134°49'1415.8
2014-Jul-24 08:34N 34°35' E 135°06'1414.2
2014-Jul-24 07:33N 34°33' E 135°23'1 0.2
2014-Jul-23 23:33N 34°32' E 135°25'6 5.0
2014-Jul-23 22:25N 34°32' E 135°18'0 0.0
2014-Jul-23 21:19N 34°32' E 135°18'0 0.0
2014-Jul-23 20:25N 34°32' E 135°18'0 0.0
2014-Jul-23 19:31N 34°32' E 135°18'0 0.0
2014-Jul-23 18:31N 34°32' E 135°18'0 0.0
2014-Jul-23 17:19N 34°32' E 135°18'0 0.0
2014-Jul-23 16:31N 34°32' E 135°18'0 0.0
2014-Jul-23 15:31N 34°32' E 135°18'0 0.0
2014-Jul-23 14:31N 34°32' E 135°18'1111.2
2014-Jul-23 13:33N 34°34' E 135°05'1512.0
2014-Jul-23 12:19N 34°33' E 134°47'101 5.6
2014-Jul-22 18:10N 34°05' E 132°50'914.5
2014-Jul-22 17:33N 33°58' E 132°43'2114.3
2014-Jul-22 16:06N 33°45' E 132°23'354 7.9
2014-Jul-20 19:25N 37°14' E 138°14'  

Dump ship's entire track history